Weather observations for the past three days for
Flemingsburg Fleming-Mason Airport
Imperial (Metric)
Date Time (edt) Wind (mph) Vis. (mi.) Weather Sky Cond. Temperature (ºF) Relative Humidity Wind Chill (°F) Heat Index (°F) Pressure Precipitation (in)
Air Dwpt 6 hour altimeter (in) sea level (mb) 1 hr 3 hr 6 hr
Max. Min.
10 15:35 N 6 10.00 Fair CLR 72.3 50.2 46% 30.02 0.0
10 15:15 N 8 10.00 Partly Cloudy SCT050 72 51.1 48% 30.02 0.0
10 14:55 N 10 G 17 10.00 Partly Cloudy SCT045 SCT050 72 51.8 49% 30.02 0.0
10 14:35 NE 5 10.00 Partly Cloudy SCT047 71.6 52.3 51% 30.02 0.0
10 14:15 NW 8 10.00 Mostly Cloudy SCT037 BKN049 70.9 53.6 55% 30.02 0.0
10 13:55 N 7 10.00 Mostly Cloudy SCT038 SCT044 BKN050 71.2 54.7 72.5 56.3 56% 30.02 0.0
10 13:35 NW 12 G 16 10.00 Mostly Cloudy SCT038 SCT046 BKN055 72.5 54.7 54% 30.02 0.0
10 13:15 N 7 10.00 Mostly Cloudy SCT040 BKN049 BKN060 71.6 54.5 55% 30.02 0.0
10 12:55 N 5 G 9 10.00 Mostly Cloudy BKN038 BKN047 71.1 53.6 54% 30.02 0.0
10 12:35 NW 7 10.00 Mostly Cloudy BKN038 BKN045 70.3 54.3 57% 30.02 0.0
10 12:15 N 6 10.00 Partly Cloudy SCT035 70.5 54.7 57% 30.01 0.0
10 11:55 NW 7 10.00 Fair CLR 69.1 53.1 57% 30.02 0.0
10 11:35 NW 8 10.00 Fair CLR 69.4 54.3 59% 30.02 0.0
10 11:15 W 7 10.00 Fair CLR 67.3 52.5 59% 30.01 0.0
10 10:55 W 6 10.00 Fair CLR 67.5 52.5 59% 30 0.0
10 10:35 W 8 10.00 Partly Cloudy SCT100 64.4 52.7 66% 30 0.0
10 10:15 W 7 10.00 Mostly Cloudy BKN100 BKN120 63.3 51.6 66% 30 0.0
10 09:55 W 8 10.00 Fair CLR 63.7 52.2 66% 29.99 0.0
10 09:35 W 6 10.00 Fair CLR 61.3 51.8 71% 29.98 0.0
10 09:15 W 5 10.00 Fair CLR 59.7 52 76% 29.99 0.0
10 08:55 W 3 10.00 Fair CLR 58.5 51.4 78% 29.97 0.0
10 08:35 S 3 10.00 Fair CLR 58.1 52.3 81% 29.96 0.0
10 08:15 Calm 10.00 Partly Cloudy SCT110 57.2 52.3 84% 29.97 0.0
10 07:55 Calm 10.00 Partly Cloudy SCT110 56.3 50.9 57.2 55.4 82% 29.97 0.0
10 07:35 Calm 10.00 Fair CLR 55.6 50 82% 29.97 0.0
10 07:15 W 3 10.00 Partly Cloudy SCT055 SCT070 55.9 50.2 81% 29.95 0.0
10 06:55 SW 6 10.00 Partly Cloudy SCT055 SCT070 SCT100 56.3 49.5 78% 29.94 0.0
10 06:35 SW 8 10.00 Partly Cloudy SCT100 56.5 49.5 77% 29.93 0.0
10 06:15 SW 5 10.00 Fair CLR 56.7 49.3 76% 29.92 0.0
10 05:55 SW 5 10.00 Fair CLR 56.5 49.1 76% 29.91 0.0
10 05:35 SW 6 10.00 Fair CLR 57 49.3 75% 29.91 0.0
10 05:15 W 3 10.00 Fair CLR 56.3 49.3 77% 29.91 0.0
10 04:55 W 5 10.00 Fair CLR 56.7 49.3 76% 29.9 0.0
10 04:35 W 6 10.00 Fair CLR 56.7 49.5 77% 29.9 0.0
10 04:15 W 6 10.00 Fair CLR 56.3 49.6 79% 29.89 0.0
10 03:55 W 6 10.00 Fair CLR 56.3 50 80% 29.89 0.0
10 03:35 W 5 10.00 Fair CLR 56.1 50 80% 29.89 0.0
10 03:15 W 5 10.00 Fair CLR 55.9 50.2 81% 29.89 0.0
10 02:55 W 5 10.00 Fair CLR 55.8 50 81% 29.89 0.0
10 02:35 SW 6 10.00 Fair CLR 56.5 50.4 80% 29.89 0.0
10 02:15 SW 5 10.00 Fair CLR 56.3 50.4 81% 29.89 0.0
10 01:55 SW 6 10.00 Fair CLR 57.2 50.7 68.2 57.2 79% 29.89 0.0
10 01:35 SW 5 10.00 Fair CLR 57.4 50.9 79% 29.89 0.0
10 01:15 SW 7 10.00 Fair CLR 57.7 50.9 78% 29.89 0.0
10 00:55 SW 6 10.00 Fair CLR 58.1 50.9 77% 29.89 0.0
10 00:35 SW 7 10.00 Fair CLR 58.5 51.1 77% 29.89 0.0
10 00:15 SW 8 10.00 Fair CLR 59.2 51.1 75% 29.89 0.0
09 23:55 SW 8 10.00 Fair CLR 59.4 51.3 75% 29.89 0.0
09 23:35 SW 8 10.00 Fair CLR 59.5 51.4 75% 29.89 0.0
09 23:15 SW 7 10.00 Fair CLR 59.9 51.6 74% 29.89 0.0
09 22:55 SW 7 10.00 Fair CLR 60.3 51.4 73% 29.89 0.0
09 22:35 SW 6 10.00 Fair CLR 60.6 51.8 73% 29.88 0.0
09 22:15 SW 5 10.00 Fair CLR 61.2 51.8 71% 29.88 0.0
09 21:55 SW 5 10.00 Fair CLR 61.7 52 71% 29.87 0.0
09 21:35 SW 7 10.00 Fair CLR 62.6 52.2 69% 29.86 0.0
09 21:15 SW 6 10.00 Fair CLR 63 52.3 68% 29.85 0.0
09 20:55 SW 6 10.00 Fair CLR 63.7 52.2 66% 29.85 0.0
09 20:35 SW 7 10.00 Fair CLR 64.9 51.8 63% 29.84 0.0
09 20:15 SW 8 10.00 Fair CLR 67.1 51.8 58% 29.83 0.0
09 19:55 SW 7 10.00 Fair CLR 68.5 52 73.6 68.5 56% 29.83 0.0
09 19:35 SW 8 10.00 Fair CLR 69.8 50.4 50% 29.82 0.0
09 19:15 W 10 10.00 Fair CLR 70.9 50 48% 29.82 0.0
09 18:55 SW 10 10.00 Fair CLR 71.6 50.5 48% 29.82 0.0
09 18:35 W 9 10.00 Fair CLR 72.5 51.1 47% 29.82 0.0
09 18:15 W 8 10.00 Fair CLR 72.9 51.1 46% 29.81 0.0
09 17:55 W 8 G 16 10.00 Fair CLR 72.9 51.6 47% 29.81 0.0
09 17:35 SW 12 10.00 Fair CLR 73.2 52.2 48% 29.82 0.0
09 17:15 W 7 10.00 Fair CLR 73.2 50.5 45% 29.82 0.0
09 16:55 W 12 10.00 Partly Cloudy SCT050 73.2 52 47% 29.82 0.0
09 16:35 W 10 10.00 Mostly Cloudy BKN050 73.4 52.7 48% 29.83 0.0
09 16:15 SW 7 10.00 Partly Cloudy SCT048 71.4 51.6 50% 29.83 0.0
09 15:55 W 5 G 10 10.00 Fair CLR 72.7 51.4 47% 29.83 0.0
09 15:35 W 9 10.00 Partly Cloudy SCT045 SCT050 72.5 52.7 50% 29.84 0.0
09 15:15 W 9 10.00 Mostly Cloudy SCT043 BKN050 69.6 51.6 53% 29.84 0.0
09 14:55 W 12 G 16 10.00 Mostly Cloudy SCT041 BKN047 BKN050 71.4 53.8 54% 29.84 0.0
09 14:35 SW 10 10.00 Mostly Cloudy SCT041 BKN047 BKN050 70.7 52.5 53% 29.84 0.0
09 14:15 W 9 G 16 10.00 Mostly Cloudy SCT039 SCT046 BKN050 69.6 52.7 55% 29.84 0.0
09 13:55 W 9 10.00 Overcast BKN039 OVC050 69.3 52 70.3 53.2 54% 29.84 0.0
09 13:35 W 5 10.00 Mostly Cloudy BKN034 BKN041 69.8 52.2 54% 29.83 0.0
09 13:15 W 8 10.00 Mostly Cloudy BKN032 67.6 51.4 56% 29.83 0.0
09 12:55 W 8 10.00 Partly Cloudy SCT030 68.5 52.7 57% 29.84 0.0
09 12:35 W 13 G 16 10.00 Partly Cloudy SCT028 65.8 50.9 59% 29.84 0.0
09 12:15 W 10 G 17 10.00 Fair CLR 65.3 52 62% 29.84 0.0
09 11:55 W 9 10.00 Partly Cloudy SCT070 64.2 51.8 64% 29.84 0.0
09 11:35 W 10 G 17 10.00 Mostly Cloudy BKN070 63.7 51.8 65% 29.84 0.0
09 11:15 W 9 10.00 Overcast OVC070 60.4 50.4 70% 29.84 0.0
09 10:55 W 8 10.00 Overcast OVC080 59.9 49.6 69% 29.84 0.0
09 10:35 SW 8 10.00 Overcast BKN080 OVC100 58.6 49.1 71% 29.85 0.0
09 10:15 W 6 10.00 Overcast BKN080 OVC100 56.8 48.6 74% 29.85 0.0
09 09:55 W 5 10.00 Overcast SCT055 OVC080 55.6 47.1 73% 29.84 0.0
09 09:35 SW 5 10.00 Overcast SCT055 OVC080 55.2 47.3 75% 29.83 0.0
09 09:15 S 3 10.00 Overcast SCT055 BKN065 OVC090 54.1 47.5 78% 29.83 0.0
09 08:55 Calm 10.00 Overcast SCT065 BKN070 OVC090 53.6 46.8 78% 29.82 0.0
09 08:35 S 5 10.00 Overcast SCT065 SCT075 OVC110 53.4 47.5 80% 29.83 0.0
09 08:15 SE 6 10.00 Overcast SCT065 BKN085 OVC110 53.6 48.2 82% 29.83 0.0
09 07:55 E 3 10.00 Overcast SCT065 BKN090 OVC110 53.6 47.8 57.4 52.7 81% 29.82 0.0
09 07:35 E 3 10.00 Overcast BKN065 BKN080 OVC090 53.6 47.3 79% 29.83 0.0
09 07:15 Calm 10.00 Mostly Cloudy BKN065 BKN080 BKN120 53.2 46.2 77% 29.83 0.0
09 06:55 Calm 10.00 Partly Cloudy SCT065 SCT120 52.7 45.7 77% 29.83 0.0
09 06:35 E 3 10.00 Partly Cloudy SCT120 52.7 45.9 78% 29.82 0.0
09 06:15 E 5 10.00 Partly Cloudy SCT065 SCT120 52.9 45.5 76% 29.82 0.0
09 05:55 E 3 10.00 Partly Cloudy SCT065 53.8 45 72% 29.83 0.0
09 05:35 NE 3 10.00 Partly Cloudy SCT085 54.5 44.2 68% 29.83 0.0
09 05:15 NE 5 10.00 Mostly Cloudy BKN085 BKN120 54.9 43.2 65% 29.83 0.0
09 04:35 Calm 10.00 Overcast BKN070 OVC085 55.8 41.2 58% 29.83 0.0
09 04:15 Calm 10.00 Overcast BKN070 BKN095 OVC120 55.4 43 63% 29.83 0.0
09 03:55 Calm 10.00 Overcast BKN070 OVC095 55.4 42.8 63% 29.83 0.0
09 03:35 N 5 10.00 Rain SCT050 OVC080 55.6 42.3 61% 29.84 0.0
09 03:15 W 3 10.00 Overcast BKN080 OVC090 55.8 41.4 59% 29.84 0.0
09 02:55 Calm 10.00 Overcast OVC090 56.3 41 57% 29.84 0.0
09 02:35 SW 3 10.00 Overcast OVC090 55.4 41.5 60% 29.84 0.0
09 02:15 SW 5 10.00 Overcast OVC100 56.5 41 56% 29.84 0.0
09 01:55 SW 3 10.00 Overcast OVC100 57.4 39.7 64.8 54.9 52% 29.83 0.0
09 01:35 S 6 10.00 Overcast BKN100 OVC120 57.4 39.7 52% 29.84 0.0
09 01:15 S 6 10.00 Overcast BKN100 OVC120 55 42.6 63% 29.84 0.0
09 00:55 Calm 10.00 Overcast OVC100 56.1 41.4 58% 29.85 0.0
09 00:35 Calm 10.00 Overcast BKN090 OVC120 56.3 40.6 56% 29.85 0.0
09 00:15 Calm 10.00 Mostly Cloudy BKN090 57.2 39.4 52% 29.85 0.0
08 23:55 SW 3 10.00 Partly Cloudy SCT090 58.5 39.2 49% 29.85 0.0
08 23:35 S 5 10.00 Partly Cloudy SCT100 59 39.4 48% 29.85 0.0
08 23:15 S 5 10.00 Fair CLR 59.4 39.2 47% 29.86 0.0
08 22:55 S 5 10.00 Fair CLR 60.3 38.5 45% 29.87 0.0
08 22:35 S 5 10.00 Fair CLR 60.3 39.2 46% 29.87 0.0
08 22:15 SW 3 10.00 Fair CLR 60.8 39.2 45% 29.87 0.0
08 21:55 SW 5 10.00 Partly Cloudy SCT110 61.2 38.8 44% 29.87 0.0
08 21:35 SW 3 10.00 Partly Cloudy SCT120 61.7 38.8 43% 29.87 0.0
08 21:15 SW 3 10.00 Partly Cloudy SCT120 62.6 38.5 41% 29.87 0.0
08 20:55 W 5 10.00 Fair CLR 62.6 38.3 41% 29.86 0.0
08 20:35 SW 6 10.00 Fair CLR 63 37.9 40% 29.86 0.0
08 20:15 W 6 10.00 Partly Cloudy SCT110 63.9 37.6 38% 29.86 0.0
08 19:55 W 7 10.00 Partly Cloudy SCT100 64.8 37.6 71.1 64.8 37% 29.87 0.0
08 19:35 W 10 G 16 10.00 Mostly Cloudy BKN110 66.7 36.9 33% 29.87 0.0
08 18:55 W 12 G 16 10.00 Fair CLR 68.4 37.6 32% 29.86 0.0
08 18:35 W 14 G 18 10.00 Fair CLR 68.5 38.5 33% 29.87 0.0
08 18:15 W 12 10.00 Fair CLR 69.4 37.2 31% 29.87 0.0
08 17:55 W 9 G 17 10.00 Fair CLR 70 38.3 32% 29.86 0.0
08 17:35 W 17 10.00 Fair CLR 69.8 38.3 32% 29.87 0.0
08 17:15 W 9 10.00 Partly Cloudy SCT095 69.6 39.2 33% 29.88 0.0
08 16:55 W 10 G 20 10.00 Mostly Cloudy BKN095 68 38.1 34% 29.89 0.0
08 16:35 W 13 G 20 10.00 Fair CLR 70.2 37.6 30% 29.89 0.0
08 16:15 W 16 G 21 10.00 Fair CLR 71.1 38.8 31% 29.89 0.0
08 15:55 SW 9 G 21 10.00 Fair CLR 69.1 36.7 31% 29.9 0.0
08 15:35 SW 12 G 18 10.00 Fair CLR 70.2 37.6 30% 29.9 0.0
08 15:15 W 10 G 24 10.00 Fair CLR 70.3 39.9 33% 29.91 0.0
08 14:55 W 15 G 20 10.00 Fair CLR 69.4 39 33% 29.92 0.0
08 14:35 W 15 G 18 10.00 Fair CLR 69.8 39.6 33% 29.94 0.0
08 14:15 W 12 G 23 10.00 Fair CLR 69.1 40.8 36% 29.94 0.0
08 13:55 W 12 G 20 10.00 Fair CLR 68.9 41.5 69.6 45.1 37% 29.95 0.0
08 13:35 W 10 G 18 10.00 Fair CLR 68.2 39.2 35% 29.96 0.0
08 13:15 SW 14 G 20 10.00 Fair CLR 67.3 38.3 35% 29.97 0.0
08 12:55 W 14 G 18 10.00 Fair CLR 67.8 40.8 37% 29.99 0.0
08 12:35 W 13 G 16 10.00 Fair CLR 66.9 40.8 39% 30 0.0
08 12:15 W 9 10.00 Fair CLR 66.4 41 40% 30 0.0
08 11:55 W 13 G 17 10.00 Fair CLR 64.9 39.4 39% 30.01 0.0
08 11:35 W 10 10.00 Fair CLR 64.8 39.6 40% 30.02 0.0
08 11:15 W 10 10.00 Fair CLR 63.7 38.3 39% 30.03 0.0
08 10:55 W 9 10.00 Fair CLR 63 38.1 40% 30.03 0.0
08 10:35 W 10 10.00 Fair CLR 61.9 38.3 42% 30.03 0.0
08 10:15 W 9 10.00 Fair CLR 60.1 38.1 44% 30.03 0.0
08 09:55 W 7 10.00 Fair CLR 59 39.4 48% 30.03 0.0
08 09:35 W 9 10.00 Fair CLR 57.2 38.7 50% 30.03 0.0
08 09:15 SW 7 10.00 Fair CLR 55.4 38.1 52% 30.03 0.0
08 08:55 W 6 10.00 Fair CLR 53.1 38.3 57% 30.03 0.0
08 08:35 SW 7 10.00 Fair CLR 50.2 37.9 63% 30.03 0.0
08 08:15 SW 6 10.00 Fair CLR 47.7 37 67% 45 30.03 0.0
08 07:55 SW 8 10.00 Fair CLR 45 36.3 45 40.3 72% 41 30.03 0.0
08 07:35 SW 8 10.00 Fair CLR 43 35.2 74% 39 30.02 0.0
08 07:15 S 8 10.00 Fair CLR 41.9 34.7 76% 37 30.02 0.0
08 06:55 SW 7 10.00 Fair CLR 41 34.2 77% 37 30.01 0.0
08 06:35 SW 7 10.00 Fair CLR 40.5 34 78% 36 30.01 0.0
08 06:15 SW 7 10.00 Fair CLR 40.5 34.2 78% 36 30.01 0.0
08 05:55 SW 7 10.00 Fair CLR 40.5 34.2 78% 36 30.01 0.0
08 05:35 SW 7 10.00 Fair CLR 40.6 34.2 78% 37 30.01 0.0
08 05:15 SW 7 10.00 Fair CLR 40.5 34.3 79% 36 30.01 0.0
08 04:55 S 7 10.00 Fair CLR 40.3 34.7 81% 36 30 0.0
08 04:35 S 7 10.00 Fair CLR 40.3 34.3 79% 36 30 0.0
08 04:15 S 7 10.00 Fair CLR 41 34.3 77% 37 30 0.0
08 03:55 SW 6 10.00 Fair CLR 41.4 34.3 76% 38 30 0.0
08 03:35 SW 8 10.00 Fair CLR 41.9 34.3 75% 37 30 0.0
08 03:15 SW 6 10.00 Fair CLR 41.7 34.5 76% 38 30 0.0
08 02:55 S 7 10.00 Fair CLR 42.1 33.8 73% 38 30 0.0
08 02:35 S 6 10.00 Fair CLR 43.2 33.4 69% 40 30.01 0.0
08 02:15 SW 5 10.00 Fair CLR 43.5 33.4 68% 41 30.01 0.0
08 01:55 SW 8 10.00 Fair CLR 44.6 32.9 57.4 44.6 64% 41 30.01 0.0
08 01:35 SW 8 10.00 Fair CLR 45.3 32.2 60% 42 30.01 0.0
08 01:15 SW 6 10.00 Fair CLR 46 32 58% 44 30.01 0.0
08 00:55 SW 5 10.00 Fair CLR 45.7 32 59% 44 30.01 0.0
08 00:35 SW 3 10.00 Fair CLR 45.7 32.2 59% 30.02 0.0
08 00:15 SW 5 10.00 Fair CLR 46 32.2 59% 44 30.01 0.0
07 23:55 W 5 10.00 Fair CLR 46.2 32.4 59% 45 30.01 0.0
07 23:35 SW 6 10.00 Fair CLR 48.9 31.5 51% 47 30.01 0.0
07 23:15 W 3 10.00 Fair CLR 49.1 30.9 50% 30.01 0.0
07 22:55 W 3 10.00 Fair CLR 49.5 31.5 50% 30.02 0.0
07 22:35 Calm 10.00 Fair CLR 50.4 30.6 47% 30.01 0.0
07 22:15 NW 3 10.00 Fair CLR 51.1 30 45% 30.01 0.0
07 21:55 Calm 10.00 Fair CLR 52.7 29.8 42% 30 0.0
07 21:35 Calm 10.00 Fair CLR 53.2 29.8 41% 30 0.0
07 21:15 Calm 10.00 Fair CLR 53.8 29.8 40% 30 0.0
07 20:55 Calm 10.00 Fair CLR 54.5 29.8 39% 29.98 0.0
07 20:35 Calm 10.00 Fair CLR 55.4 29.1 37% 29.98 0.0
07 20:15 N 3 10.00 Fair CLR 56.3 29.7 36% 29.98 0.0
07 19:55 N 3 10.00 Fair CLR 57.4 28.6 61.7 57.4 33% 29.97 0.0
07 19:35 N 6 10.00 Fair CLR 58.6 30 34% 29.97 0.0
07 19:15 NW 3 10.00 Fair CLR 59.4 29.3 32% 29.97 0.0
07 18:55 N 7 10.00 Fair CLR 59.4 27.7 30% 29.97 0.0
07 18:35 N 8 10.00 Fair CLR 60.4 27.7 29% 29.97 0.0
07 18:15 N 12 G 17 10.00 Fair CLR 60.6 28 29% 29.97 0.0
07 17:55 N 10 10.00 Fair CLR 60.8 28.8 30% 29.97 0.0
07 17:35 N 8 10.00 Fair CLR 60.8 28.4 29% 29.96 0.0
07 17:15 N 8 10.00 Fair CLR 60.8 29.3 30% 29.96 0.0
07 16:15 N 12 G 17 10.00 Fair CLR 61.5 29.5 30% 29.95 0.0
Date Time (edt) Wind (mph) Vis. (mi.) Weather Sky Cond. Air Dwpt Max. Min. Relative Humidity Wind Chill (°F) Heat Index (°F) altimeter (in) sea level (mb) 1 hr 3 hr 6 hr
6 hour
Temperature (ºF) Pressure Precipitation (in)